Sherman Lake, Nebraska
Current Conditions -  °F | °C
As of 6:53 PM on Thursday 27 Nov 2014 (Local Time) from KODX Reporting Station
Clear Clear  
Wind Chill: 22°   Ceiling: Unl
Heat Index: 31°   Visibility: 10mi
Dew Point: 18°   Wind: 10mph
Humidity: 59%   Direction: 150°SSE
Pressure: 30.07"   Gusts: NA
Location:  41.3026°N, 99.0141°W
Report Text: KODX 280053Z AUTO 15009KT 10SM CLR M01/M08 A3007 RMK AO2 SLP210 T10061078
Loading
Personal Weather Stations






























Interactive Weather Map New forecast layout! Learn more

10-Day Weather Forecast

Advertisements
Track Severe Weather on mobile